Strathblane, United Kingdom
Current Conditions -  °F | °C
As of 10:20 AM on Thursday 23 Oct 2014 (Local Time) from EGPF Reporting Station
Haze Haze  
Wind Chill: 55°   Ceiling: 1900
Heat Index: 55°   Visibility: 3mi
Dew Point: 52°   Wind: 17mph
Humidity: 88%   Direction: 210°SSW
Pressure: 29.8"   Gusts: NA
Location:  55.99°N, 4.31°W
Report Text: EGPF 230920Z AUTO 21015KT 5000 HZ BKN019 13/11 Q1009
Loading
Personal Weather Stations






























Interactive Weather Map
Tropical Storm Tracking
New forecast layout! Learn more

10-Day Weather Forecast

Advertisements
Track Severe Weather on mobile